Time;durP1;ratioP1;P1;durP2;ratioP2;P2;SDS_P1;SDS_P2;PMS_P1;PMS_P2;Temp;Humidity;BMP_temperature;BMP_pressure;BME280_temperature;BME280_humidity;BME280_pressure;Samples;Min_cycle;Max_cycle;Signal;HPM_P1;HPM_P2
2021/12/22 00:00:34;;;;;;;;;41.00;41.00;;;;;;;;5054610;28;8857;-81
2021/12/22 00:03:01;;;;;;;;;36.75;36.75;;;;;;;;5048613;28;8869;-76
2021/12/22 00:05:30;;;;;;;;;33.00;33.00;;;;;;;;5053223;28;8934;-76
2021/12/22 00:07:59;;;;;;;;;30.25;30.25;;;;;;;;5051100;28;8861;-75
2021/12/22 00:10:26;;;;;;;;;33.00;33.00;;;;;;;;5060944;28;9644;-78
2021/12/22 00:12:55;;;;;;;;;30.50;30.50;;;;;;;;5055942;28;8847;-76
2021/12/22 00:15:22;;;;;;;;;35.75;33.75;;;;;;;;5061519;28;9013;-79
2021/12/22 00:17:50;;;;;;;;;37.25;36.50;;;;;;;;5056716;28;8846;-76
2021/12/22 00:20:17;;;;;;;;;48.00;44.50;;;;;;;;5062441;28;8870;-78
2021/12/22 00:22:44;;;;;;;;;32.50;29.50;;;;;;;;5056465;28;8891;-79
2021/12/22 00:25:15;;;;;;;;;32.00;32.00;;;;;;;;5054872;28;8892;-78
2021/12/22 00:27:42;;;;;;;;;13.00;11.00;;;;;;;;5059289;28;9629;-76
2021/12/22 00:30:11;;;;;;;;;30.50;29.00;;;;;;;;5050690;28;9930;-77
2021/12/22 00:32:40;;;;;;;;;34.75;31.00;;;;;;;;5052981;28;8946;-78
2021/12/22 00:35:09;;;;;;;;;32.50;32.50;;;;;;;;5055448;28;8883;-77
2021/12/22 00:37:36;;;;;;;;;27.25;27.25;;;;;;;;5057127;28;9627;-78
2021/12/22 00:40:06;;;;;;;;;33.00;33.00;;;;;;;;5058266;28;8880;-76
2021/12/22 00:42:35;;;;;;;;;37.75;37.75;;;;;;;;5052081;28;8869;-76
2021/12/22 00:45:03;;;;;;;;;23.00;23.00;;;;;;;;5055951;28;8943;-82
2021/12/22 00:47:32;;;;;;;;;34.00;34.00;;;;;;;;5047745;28;8853;-76
2021/12/22 00:50:00;;;;;;;;;31.50;31.50;;;;;;;;5059421;28;8886;-75
2021/12/22 00:52:27;;;;;;;;;38.50;36.00;;;;;;;;5061949;28;8834;-74
2021/12/22 00:54:55;;;;;;;;;33.00;31.00;;;;;;;;5057593;28;8882;-78
2021/12/22 00:57:22;;;;;;;;;30.00;30.00;;;;;;;;5060091;28;8901;-81
2021/12/22 00:59:51;;;;;;;;;30.00;30.00;;;;;;;;5057072;28;8877;-82
2021/12/22 01:02:20;;;;;;;;;28.75;28.75;;;;;;;;5050433;28;8945;-82
2021/12/22 01:04:48;;;;;;;;;33.25;33.25;;;;;;;;5053534;28;8867;-77
2021/12/22 01:07:16;;;;;;;;;19.25;19.25;;;;;;;;5041622;28;8923;-78
2021/12/22 01:09:43;;;;;;;;;27.75;27.50;;;;;;;;5058463;28;8850;-79
2021/12/22 01:12:11;;;;;;;;;28.25;25.75;;;;;;;;5051829;28;8859;-82
2021/12/22 01:14:39;;;;;;;;;27.25;27.25;;;;;;;;5058489;28;8924;-84
2021/12/22 01:17:11;;;;;;;;;32.50;32.50;;;;;;;;5063340;28;9666;-74
2021/12/22 01:19:45;;;;;;;;;28.75;27.50;;;;;;;;5060892;28;8894;-75
2021/12/22 01:22:23;;;;;;;;;27.25;26.25;;;;;;;;5056831;28;8837;-79
2021/12/22 01:24:59;;;;;;;;;30.00;30.00;;;;;;;;5056165;28;8862;-75
2021/12/22 01:27:28;;;;;;;;;33.00;33.00;;;;;;;;5054276;28;8865;-79
2021/12/22 01:29:55;;;;;;;;;30.50;30.50;;;;;;;;5060373;28;8874;-79
2021/12/22 01:32:25;;;;;;;;;23.50;23.50;;;;;;;;5056340;28;8837;-77
2021/12/22 01:34:53;;;;;;;;;24.50;24.50;;;;;;;;5058716;28;8981;-81
2021/12/22 01:37:20;;;;;;;;;23.00;22.75;;;;;;;;5058313;28;8932;-80
2021/12/22 01:39:47;;;;;;;;;32.75;31.00;;;;;;;;5059959;28;8896;-79
2021/12/22 01:42:15;;;;;;;;;21.00;21.00;;;;;;;;5064171;28;8866;-76
2021/12/22 01:45:00;;;;;;;;;28.00;27.25;;;;;;;;5053306;28;9012;-75
2021/12/22 01:50:17;;;;;;;;;25.50;25.50;;;;;;;;5055566;28;8858;-77
2021/12/22 01:52:44;;;;;;;;;34.25;31.50;;;;;;;;5061613;28;8928;-81
2021/12/22 01:55:24;;;;;;;;;34.25;30.50;;;;;;;;5051025;28;9628;-75
2021/12/22 01:57:52;;;;;;;;;35.00;33.25;;;;;;;;5054567;28;8877;-76
2021/12/22 02:00:22;;;;;;;;;26.00;26.00;;;;;;;;5057567;28;8883;-76
2021/12/22 02:02:52;;;;;;;;;22.75;20.75;;;;;;;;5055047;28;8908;-80
2021/12/22 02:05:20;;;;;;;;;25.25;23.25;;;;;;;;5049296;28;8877;-77
2021/12/22 02:07:49;;;;;;;;;28.00;28.00;;;;;;;;5057494;28;8902;-81
2021/12/22 02:13:01;;;;;;;;;21.75;21.75;;;;;;;;5051786;28;8968;-81
2021/12/22 02:15:33;;;;;;;;;18.75;18.75;;;;;;;;5051509;28;8869;-76
2021/12/22 02:18:04;;;;;;;;;27.25;27.25;;;;;;;;5050589;28;8935;-78
2021/12/22 02:20:32;;;;;;;;;27.00;27.00;;;;;;;;5068345;28;9208;-78
2021/12/22 02:23:00;;;;;;;;;21.25;21.25;;;;;;;;5059306;28;8847;-77
2021/12/22 02:25:39;;;;;;;;;19.25;19.25;;;;;;;;5051676;28;8873;-78
2021/12/22 02:28:13;;;;;;;;;26.00;26.00;;;;;;;;5055557;28;8830;-75
2021/12/22 02:30:41;;;;;;;;;13.50;13.50;;;;;;;;5051010;28;8835;-78
2021/12/22 02:36:09;;;;;;;;;21.75;21.75;;;;;;;;5057401;28;8827;-76
2021/12/22 02:38:39;;;;;;;;;27.25;27.25;;;;;;;;5062482;28;9013;-79
2021/12/22 02:41:09;;;;;;;;;30.50;27.75;;;;;;;;5056955;28;8835;-77
2021/12/22 02:43:44;;;;;;;;;29.50;29.00;;;;;;;;5057787;28;8863;-78
2021/12/22 02:46:11;;;;;;;;;27.00;27.00;;;;;;;;5051041;28;8858;-78
2021/12/22 02:48:39;;;;;;;;;24.25;24.25;;;;;;;;5056355;28;8889;-76
2021/12/22 02:51:07;;;;;;;;;18.00;18.00;;;;;;;;5049478;28;8887;-81
2021/12/22 02:53:42;;;;;;;;;26.25;26.25;;;;;;;;5054223;28;8880;-82
2021/12/22 02:56:26;;;;;;;;;20.00;20.00;;;;;;;;5055164;28;8858;-76
2021/12/22 02:59:02;;;;;;;;;21.00;21.00;;;;;;;;5052632;28;10176;-81
2021/12/22 03:02:04;;;;;;;;;27.00;25.75;;;;;;;;5047483;28;9609;-78
2021/12/22 03:04:32;;;;;;;;;27.25;26.50;;;;;;;;5051190;28;8966;-78
2021/12/22 03:07:05;;;;;;;;;26.50;24.50;;;;;;;;5056838;28;8875;-81
2021/12/22 03:09:35;;;;;;;;;24.00;24.00;;;;;;;;5057589;28;8945;-76
2021/12/22 03:12:05;;;;;;;;;26.00;23.75;;;;;;;;5059847;28;8863;-76
2021/12/22 03:14:32;;;;;;;;;22.00;22.00;;;;;;;;5055928;28;9738;-78
2021/12/22 03:17:00;;;;;;;;;26.00;26.00;;;;;;;;5055980;28;8935;-82
2021/12/22 03:19:29;;;;;;;;;19.25;19.25;;;;;;;;5055382;28;8875;-76
2021/12/22 03:22:02;;;;;;;;;18.50;18.50;;;;;;;;5056694;28;8912;-81
2021/12/22 03:24:33;;;;;;;;;11.00;11.00;;;;;;;;5052630;28;9610;-79
2021/12/22 03:27:02;;;;;;;;;16.50;16.50;;;;;;;;5051094;28;8869;-76
2021/12/22 03:29:31;;;;;;;;;20.75;20.75;;;;;;;;5053156;28;8863;-80
2021/12/22 03:31:59;;;;;;;;;20.00;19.50;;;;;;;;5052436;28;9612;-79
2021/12/22 03:34:26;;;;;;;;;20.50;20.50;;;;;;;;5062578;28;8907;-80
2021/12/22 03:36:54;;;;;;;;;17.75;17.75;;;;;;;;5055139;28;8858;-79
2021/12/22 03:39:21;;;;;;;;;19.25;19.25;;;;;;;;5056916;28;8965;-76
2021/12/22 03:41:50;;;;;;;;;24.75;24.75;;;;;;;;5046106;28;8983;-75
2021/12/22 03:44:18;;;;;;;;;27.00;27.00;;;;;;;;5052920;28;8853;-73
2021/12/22 03:46:46;;;;;;;;;25.00;25.00;;;;;;;;5057024;28;8949;-77
2021/12/22 03:49:15;;;;;;;;;25.25;23.75;;;;;;;;5047978;28;8999;-73
2021/12/22 03:51:43;;;;;;;;;26.50;24.75;;;;;;;;5051267;28;8873;-77
2021/12/22 03:54:12;;;;;;;;;25.50;25.50;;;;;;;;5049568;28;8861;-79
2021/12/22 03:56:39;;;;;;;;;17.50;17.50;;;;;;;;5056694;28;8874;-81
2021/12/22 03:59:08;;;;;;;;;23.50;23.50;;;;;;;;5055422;28;8874;-80
2021/12/22 04:01:36;;;;;;;;;26.00;26.00;;;;;;;;5051878;28;8827;-80
2021/12/22 04:04:05;;;;;;;;;24.00;24.00;;;;;;;;5055391;28;8855;-79
2021/12/22 04:06:32;;;;;;;;;24.75;23.00;;;;;;;;5055506;28;8938;-79
2021/12/22 04:08:59;;;;;;;;;32.50;32.50;;;;;;;;5054902;28;8876;-81
2021/12/22 04:11:27;;;;;;;;;34.75;34.75;;;;;;;;5056146;28;8854;-74
2021/12/22 04:13:54;;;;;;;;;32.50;31.25;;;;;;;;5055451;28;8865;-76
2021/12/22 04:16:23;;;;;;;;;25.50;25.50;;;;;;;;5051908;28;8882;-76
2021/12/22 04:18:50;;;;;;;;;26.50;26.50;;;;;;;;5055294;28;8881;-76
2021/12/22 04:21:18;;;;;;;;;31.75;30.50;;;;;;;;5058140;28;9129;-75
2021/12/22 04:23:45;;;;;;;;;30.50;30.50;;;;;;;;5049324;28;9069;-79
2021/12/22 04:26:12;;;;;;;;;33.50;31.00;;;;;;;;5055665;28;8886;-79
2021/12/22 04:28:40;;;;;;;;;32.50;32.50;;;;;;;;5060453;28;8854;-79
2021/12/22 04:31:08;;;;;;;;;31.00;31.00;;;;;;;;5056937;28;8827;-79
2021/12/22 04:33:37;;;;;;;;;39.25;39.25;;;;;;;;5060674;28;8900;-75
2021/12/22 04:36:05;;;;;;;;;33.00;33.00;;;;;;;;5063845;28;8885;-76
2021/12/22 04:38:32;;;;;;;;;36.50;36.50;;;;;;;;5065781;28;8904;-79
2021/12/22 04:40:59;;;;;;;;;36.00;36.00;;;;;;;;5061857;28;8891;-75
2021/12/22 04:43:27;;;;;;;;;40.50;40.50;;;;;;;;5064721;28;8878;-78
2021/12/22 04:45:55;;;;;;;;;36.50;34.25;;;;;;;;5060408;28;8866;-79
2021/12/22 04:48:22;;;;;;;;;45.00;44.25;;;;;;;;5062959;28;8881;-79
2021/12/22 04:50:51;;;;;;;;;33.00;33.00;;;;;;;;5062325;28;8862;-78
2021/12/22 04:53:22;;;;;;;;;39.00;39.00;;;;;;;;5055761;28;8974;-77
2021/12/22 04:55:50;;;;;;;;;37.75;37.75;;;;;;;;5051981;28;8979;-78
2021/12/22 04:58:17;;;;;;;;;42.25;38.50;;;;;;;;5067213;28;8929;-78
2021/12/22 05:00:44;;;;;;;;;42.75;42.75;;;;;;;;5052460;28;8920;-75
2021/12/22 05:03:12;;;;;;;;;42.75;39.75;;;;;;;;5088972;28;9028;-75
2021/12/22 05:05:39;;;;;;;;;40.67;39.33;;;;;;;;5060871;28;8886;-76
2021/12/22 05:08:08;;;;;;;;;40.75;40.75;;;;;;;;5055168;28;8980;-79
2021/12/22 05:10:35;;;;;;;;;26.75;24.75;;;;;;;;5056980;28;8883;-75
2021/12/22 05:13:03;;;;;;;;;31.67;28.67;;;;;;;;5064170;28;8900;-83
2021/12/22 05:15:37;;;;;;;;;43.00;42.25;;;;;;;;5053437;28;8883;-76
2021/12/22 05:20:55;;;;;;;;;26.33;25.00;;;;;;;;5047117;28;8868;-77
2021/12/22 05:23:24;;;;;;;;;32.00;32.00;;;;;;;;5050439;28;8874;-82
2021/12/22 05:25:51;;;;;;;;;25.67;25.67;;;;;;;;5056732;28;8888;-76
2021/12/22 05:28:19;;;;;;;;;24.33;24.33;;;;;;;;5083299;28;8885;-74
2021/12/22 05:30:47;;;;;;;;;27.67;27.67;;;;;;;;5057202;28;8799;-80
2021/12/22 05:33:15;;;;;;;;;41.33;39.67;;;;;;;;5050852;28;8892;-78
2021/12/22 05:35:42;;;;;;;;;30.33;30.33;;;;;;;;5048577;28;8874;-74
2021/12/22 05:38:09;;;;;;;;;32.33;32.33;;;;;;;;5063378;28;8877;-78
2021/12/22 05:40:38;;;;;;;;;39.00;37.00;;;;;;;;5053221;28;8853;-76
2021/12/22 05:43:05;;;;;;;;;33.33;33.33;;;;;;;;5050900;28;8845;-75
2021/12/22 05:45:33;;;;;;;;;43.67;39.33;;;;;;;;5047910;28;8881;-76
2021/12/22 05:48:00;;;;;;;;;26.33;26.33;;;;;;;;5058608;28;10142;-79
2021/12/22 05:50:27;;;;;;;;;27.33;27.33;;;;;;;;5061550;28;8887;-80
2021/12/22 05:52:55;;;;;;;;;31.00;31.00;;;;;;;;5062087;28;8910;-79
2021/12/22 05:55:22;;;;;;;;;27.33;23.33;;;;;;;;5061458;28;8878;-74
2021/12/22 05:57:51;;;;;;;;;39.67;39.67;;;;;;;;5056153;28;8881;-78
2021/12/22 06:00:18;;;;;;;;;26.33;26.33;;;;;;;;5062408;28;8855;-76
2021/12/22 06:02:46;;;;;;;;;31.67;31.67;;;;;;;;5046114;28;9739;-74
2021/12/22 06:05:13;;;;;;;;;33.67;33.67;;;;;;;;5054439;28;8897;-76
2021/12/22 06:07:40;;;;;;;;;25.67;25.67;;;;;;;;5062010;28;8896;-80
2021/12/22 06:10:08;;;;;;;;;23.33;23.33;;;;;;;;5063166;28;8879;-73
2021/12/22 06:12:36;;;;;;;;;11.00;11.00;;;;;;;;5070160;28;9632;-78
2021/12/22 06:15:05;;;;;;;;;30.75;30.75;;;;;;;;5064559;28;8884;-73
2021/12/22 06:17:33;;;;;;;;;40.25;39.75;;;;;;;;5063401;28;8878;-80
2021/12/22 06:20:00;;;;;;;;;49.50;46.25;;;;;;;;5066868;28;8866;-74
2021/12/22 06:22:30;;;;;;;;;44.25;43.25;;;;;;;;5055598;28;8890;-83
2021/12/22 06:24:58;;;;;;;;;44.75;43.75;;;;;;;;5038914;28;8982;-83
2021/12/22 06:27:25;;;;;;;;;36.25;36.25;;;;;;;;5061098;28;8882;-86
2021/12/22 06:29:53;;;;;;;;;45.25;44.75;;;;;;;;5063570;28;8858;-88
2021/12/22 06:32:22;;;;;;;;;35.75;34.25;;;;;;;;5059047;28;8829;-86
2021/12/22 06:34:49;;;;;;;;;33.25;33.25;;;;;;;;5065605;28;8901;-80
2021/12/22 06:37:16;;;;;;;;;40.25;35.75;;;;;;;;5066908;28;8891;-85
2021/12/22 06:39:44;;;;;;;;;37.75;37.75;;;;;;;;5065599;28;8862;-80
2021/12/22 06:42:12;;;;;;;;;47.25;45.00;;;;;;;;5085832;28;8871;-84
2021/12/22 06:44:39;;;;;;;;;34.75;32.75;;;;;;;;5064645;28;8850;-85
2021/12/22 06:47:07;;;;;;;;;48.25;45.00;;;;;;;;5057810;28;8973;-86
2021/12/22 06:49:36;;;;;;;;;42.25;41.75;;;;;;;;5065837;28;9536;-83
2021/12/22 06:52:04;;;;;;;;;38.50;38.50;;;;;;;;5060335;28;8942;-78
2021/12/22 06:54:31;;;;;;;;;51.50;48.25;;;;;;;;5050128;28;9439;-82
2021/12/22 06:56:59;;;;;;;;;45.00;43.00;;;;;;;;5063789;28;8878;-83
2021/12/22 06:59:26;;;;;;;;;47.75;45.75;;;;;;;;5063564;28;8870;-85
2021/12/22 07:01:53;;;;;;;;;3.25;2.75;;;;;;;;5065020;28;8815;-87
2021/12/22 07:04:21;;;;;;;;;34.50;34.50;;;;;;;;5065158;28;8875;-83
2021/12/22 07:06:49;;;;;;;;;49.75;43.25;;;;;;;;5066118;28;9713;-85
2021/12/22 07:09:17;;;;;;;;;34.75;34.00;;;;;;;;5065299;28;8878;-87
2021/12/22 07:11:44;;;;;;;;;58.75;52.00;;;;;;;;5060603;28;9613;-84
2021/12/22 07:14:13;;;;;;;;;44.00;43.00;;;;;;;;5059617;28;8898;-85
2021/12/22 07:16:40;;;;;;;;;48.50;44.50;;;;;;;;5061422;28;8866;-83
2021/12/22 07:19:08;;;;;;;;;41.50;41.50;;;;;;;;5065077;28;8912;-85
2021/12/22 07:21:36;;;;;;;;;37.25;37.25;;;;;;;;5057627;28;8873;-85
2021/12/22 07:24:05;;;;;;;;;33.75;33.75;;;;;;;;5086994;28;8850;-86
2021/12/22 07:26:33;;;;;;;;;26.25;25.25;;;;;;;;5063752;28;8855;-85
2021/12/22 07:29:00;;;;;;;;;36.50;36.50;;;;;;;;5059171;28;8878;-79
2021/12/22 07:31:27;;;;;;;;;54.00;48.00;;;;;;;;5054106;28;8767;-86
2021/12/22 07:34:01;;;;;;;;;40.25;38.75;;;;;;;;5089517;28;8896;-84
2021/12/22 07:36:28;;;;;;;;;35.50;35.50;;;;;;;;5060418;28;8912;-83
2021/12/22 07:38:59;;;;;;;;;40.50;39.25;;;;;;;;5053938;28;8858;-85
2021/12/22 07:41:30;;;;;;;;;29.00;28.25;;;;;;;;5057418;28;8993;-83
2021/12/22 07:43:58;;;;;;;;;46.75;42.50;;;;;;;;5056830;28;8893;-89
2021/12/22 07:46:25;;;;;;;;;38.25;37.00;;;;;;;;5056334;28;9021;-85
2021/12/22 07:49:00;;;;;;;;;40.00;36.00;;;;;;;;5058476;28;8871;-89
2021/12/22 07:51:38;;;;;;;;;35.75;35.75;;;;;;;;5058955;28;8863;-88
2021/12/22 07:54:06;;;;;;;;;41.00;41.00;;;;;;;;5061519;28;8847;-82
2021/12/22 07:56:34;;;;;;;;;40.25;40.25;;;;;;;;5055276;28;8936;-82
2021/12/22 07:59:02;;;;;;;;;48.25;44.75;;;;;;;;5056893;28;8862;-80
2021/12/22 08:01:30;;;;;;;;;41.75;41.75;;;;;;;;5059012;28;8823;-83
2021/12/22 08:03:58;;;;;;;;;45.75;43.25;;;;;;;;5065300;28;8891;-79
2021/12/22 08:06:27;;;;;;;;;32.75;32.00;;;;;;;;5060828;28;8854;-81
2021/12/22 08:08:55;;;;;;;;;61.25;53.50;;;;;;;;5052616;28;8871;-86
2021/12/22 08:11:23;;;;;;;;;41.75;38.00;;;;;;;;5067419;28;9658;-80
2021/12/22 08:13:52;;;;;;;;;40.00;39.25;;;;;;;;5052678;28;8877;-87
2021/12/22 08:16:20;;;;;;;;;45.75;44.00;;;;;;;;5054272;28;8938;-87
2021/12/22 08:18:47;;;;;;;;;40.50;37.75;;;;;;;;5060090;28;8930;-76
2021/12/22 08:21:14;;;;;;;;;41.75;39.25;;;;;;;;5055780;28;8847;-71
2021/12/22 08:23:42;;;;;;;;;54.25;47.75;;;;;;;;5059907;28;8890;-73
2021/12/22 08:26:09;;;;;;;;;45.25;43.50;;;;;;;;5053599;28;8863;-72
2021/12/22 08:28:37;;;;;;;;;58.00;51.00;;;;;;;;5060451;28;8851;-73
2021/12/22 08:31:06;;;;;;;;;44.50;43.50;;;;;;;;5059777;28;8798;-72
2021/12/22 08:33:38;;;;;;;;;46.25;45.50;;;;;;;;5060099;28;8885;-72
2021/12/22 08:38:51;;;;;;;;;56.50;49.25;;;;;;;;5066874;28;8949;-72
2021/12/22 08:41:19;;;;;;;;;48.50;46.00;;;;;;;;5056525;28;8865;-72
2021/12/22 08:43:46;;;;;;;;;59.50;52.00;;;;;;;;5060022;28;8855;-71
2021/12/22 08:46:15;;;;;;;;;40.25;37.50;;;;;;;;5062289;28;8854;-72
2021/12/22 08:48:43;;;;;;;;;47.50;44.00;;;;;;;;5055915;28;8906;-72
2021/12/22 08:51:11;;;;;;;;;42.25;42.00;;;;;;;;5061473;28;8857;-77
2021/12/22 08:53:38;;;;;;;;;51.00;47.00;;;;;;;;5056002;28;8884;-72
2021/12/22 08:56:06;;;;;;;;;54.75;47.75;;;;;;;;5054090;28;8863;-70
2021/12/22 08:58:33;;;;;;;;;53.00;48.25;;;;;;;;5050303;28;8872;-72
2021/12/22 09:01:01;;;;;;;;;64.00;55.25;;;;;;;;5054558;28;8841;-73
2021/12/22 09:03:29;;;;;;;;;95.00;74.25;;;;;;;;5065106;28;9715;-72
2021/12/22 09:05:57;;;;;;;;;107.75;81.75;;;;;;;;5065000;28;8863;-72
2021/12/22 09:08:24;;;;;;;;;64.50;54.75;;;;;;;;5057656;28;8861;-72
2021/12/22 09:10:52;;;;;;;;;65.50;54.25;;;;;;;;5059604;28;8850;-72
2021/12/22 09:13:20;;;;;;;;;61.50;54.25;;;;;;;;5064341;28;8907;-72
2021/12/22 09:15:48;;;;;;;;;62.25;55.50;;;;;;;;5063527;28;8985;-72
2021/12/22 09:18:15;;;;;;;;;56.50;49.50;;;;;;;;5065243;28;8875;-72
2021/12/22 09:20:46;;;;;;;;;55.00;48.50;;;;;;;;5066214;28;8953;-72
2021/12/22 09:23:13;;;;;;;;;55.50;48.00;;;;;;;;5064881;28;9021;-73
2021/12/22 09:25:40;;;;;;;;;46.00;44.50;;;;;;;;5065191;28;8839;-72
2021/12/22 09:28:09;;;;;;;;;53.25;49.50;;;;;;;;5061495;28;8850;-72
2021/12/22 09:30:38;;;;;;;;;31.50;28.00;;;;;;;;5087315;28;8832;-72
2021/12/22 09:33:06;;;;;;;;;50.75;46.25;;;;;;;;5054955;28;8883;-72
2021/12/22 09:35:33;;;;;;;;;67.25;54.25;;;;;;;;5056358;28;8870;-71
2021/12/22 09:38:02;;;;;;;;;67.25;56.75;;;;;;;;5064022;28;8886;-71
2021/12/22 09:40:30;;;;;;;;;48.50;45.50;;;;;;;;5058450;28;8951;-72
2021/12/22 09:42:57;;;;;;;;;65.00;54.25;;;;;;;;5058443;28;9693;-71
2021/12/22 09:45:26;;;;;;;;;58.00;48.25;;;;;;;;5061106;28;8893;-71
2021/12/22 09:48:16;;;;;;;;;63.50;53.00;;;;;;;;5065925;28;8859;-71
2021/12/22 09:50:50;;;;;;;;;61.25;51.00;;;;;;;;5061829;28;8887;-71
2021/12/22 09:53:21;;;;;;;;;61.50;51.75;;;;;;;;5068373;28;8882;-71
2021/12/22 09:55:48;;;;;;;;;53.50;48.75;;;;;;;;5055102;28;8873;-71
2021/12/22 09:58:16;;;;;;;;;65.50;51.50;;;;;;;;5045153;28;8893;-71
2021/12/22 10:00:45;;;;;;;;;63.50;52.50;;;;;;;;5047045;28;8836;-71
2021/12/22 10:03:13;;;;;;;;;61.25;52.00;;;;;;;;5062410;28;8858;-71
2021/12/22 10:05:43;;;;;;;;;64.50;55.00;;;;;;;;5052730;28;8881;-71
2021/12/22 10:08:13;;;;;;;;;62.25;54.25;;;;;;;;5043649;28;8916;-71
2021/12/22 10:10:44;;;;;;;;;62.25;52.75;;;;;;;;5055222;28;8942;-71
2021/12/22 10:13:14;;;;;;;;;49.00;47.00;;;;;;;;5059508;28;8869;-72
2021/12/22 10:15:42;;;;;;;;;52.50;49.00;;;;;;;;5057949;28;8892;-71
2021/12/22 10:18:10;;;;;;;;;58.75;51.75;;;;;;;;5061715;28;8884;-72
2021/12/22 10:20:38;;;;;;;;;55.50;49.25;;;;;;;;5050771;28;9651;-71
2021/12/22 10:23:21;;;;;;;;;92.00;75.00;;;;;;;;5058689;28;8954;-72
2021/12/22 10:25:58;;;;;;;;;72.50;61.00;;;;;;;;5064112;28;8882;-72
2021/12/22 10:28:26;;;;;;;;;73.00;62.00;;;;;;;;5063346;28;8890;-71
2021/12/22 10:30:56;;;;;;;;;72.75;59.50;;;;;;;;5062617;28;8795;-71
2021/12/22 10:33:25;;;;;;;;;63.50;54.75;;;;;;;;5063833;28;8866;-71
2021/12/22 10:35:53;;;;;;;;;49.33;46.33;;;;;;;;5061986;28;8862;-72
2021/12/22 10:38:23;;;;;;;;;41.33;41.33;;;;;;;;5054034;28;9713;-71
2021/12/22 10:40:52;;;;;;;;;66.75;56.75;;;;;;;;5062770;28;8885;-71
2021/12/22 10:43:23;;;;;;;;;41.00;38.67;;;;;;;;5063492;28;8896;-71
2021/12/22 10:45:55;;;;;;;;;42.00;38.00;;;;;;;;5053268;28;8853;-72
2021/12/22 10:51:09;;;;;;;;;42.00;39.00;;;;;;;;5062466;28;8859;-72
2021/12/22 10:53:47;;;;;;;;;40.67;37.67;;;;;;;;5054352;28;8870;-72
2021/12/22 10:56:27;;;;;;;;;40.67;39.67;;;;;;;;5063838;28;8870;-72
2021/12/22 10:59:07;;;;;;;;;41.33;40.00;;;;;;;;5063890;28;8906;-71
2021/12/22 11:01:36;;;;;;;;;43.00;41.67;;;;;;;;5055704;28;8831;-72
2021/12/22 11:04:06;;;;;;;;;37.00;37.00;;;;;;;;5059830;28;8985;-71
2021/12/22 11:06:35;;;;;;;;;43.00;43.00;;;;;;;;5064313;28;8875;-71
2021/12/22 11:09:08;;;;;;;;;39.67;36.67;;;;;;;;5061147;28;8912;-72
2021/12/22 11:11:37;;;;;;;;;36.67;34.00;;;;;;;;5045925;28;9506;-70
2021/12/22 11:14:09;;;;;;;;;55.67;47.00;;;;;;;;5051206;28;8869;-72
2021/12/22 11:16:55;;;;;;;;;43.33;40.33;;;;;;;;5056866;28;8862;-71
2021/12/22 11:19:23;;;;;;;;;41.33;41.33;;;;;;;;5066296;28;8868;-73
2021/12/22 11:24:36;;;;;;;;;47.67;44.00;;;;;;;;5060790;28;8967;-73
2021/12/22 11:27:05;;;;;;;;;57.33;47.67;;;;;;;;5051512;28;8886;-73
2021/12/22 11:29:37;;;;;;;;;34.00;34.00;;;;;;;;5063441;28;8866;-72
2021/12/22 11:32:06;;;;;;;;;43.33;43.00;;;;;;;;5064127;28;8811;-72
2021/12/22 11:34:36;;;;;;;;;32.00;32.00;;;;;;;;5063293;28;8896;-73
2021/12/22 11:37:05;;;;;;;;;35.00;34.00;;;;;;;;5074725;28;8979;-73
2021/12/22 11:39:33;;;;;;;;;42.67;42.67;;;;;;;;5064746;28;8862;-73
2021/12/22 11:42:03;;;;;;;;;33.33;33.33;;;;;;;;5063805;28;8882;-73
2021/12/22 11:44:32;;;;;;;;;49.00;40.33;;;;;;;;5056352;28;8985;-72
2021/12/22 11:47:03;;;;;;;;;32.67;31.67;;;;;;;;5049109;28;8888;-73
2021/12/22 11:49:34;;;;;;;;;41.67;40.67;;;;;;;;5044095;28;8868;-72
2021/12/22 11:52:03;;;;;;;;;57.67;49.00;;;;;;;;5050684;28;9631;-73
2021/12/22 11:54:30;;;;;;;;;63.33;55.00;;;;;;;;5049406;28;8923;-73
2021/12/22 11:56:59;;;;;;;;;43.33;43.33;;;;;;;;5042439;28;8905;-73
2021/12/22 11:59:36;;;;;;;;;48.67;44.00;;;;;;;;5043608;28;8873;-73
2021/12/22 12:02:25;;;;;;;;;69.67;56.00;;;;;;;;5061289;28;8819;-73
2021/12/22 12:04:54;;;;;;;;;55.00;48.67;;;;;;;;5062628;28;8893;-73
2021/12/22 12:07:41;;;;;;;;;50.00;46.67;;;;;;;;5064435;28;8915;-73
2021/12/22 12:10:49;;;;;;;;;51.00;46.00;;;;;;;;5062867;28;8878;-73
2021/12/22 12:13:49;;;;;;;;;65.67;54.33;;;;;;;;5062046;28;9652;-73
2021/12/22 12:22:04;;;;;;;;;39.00;32.67;;;;;;;;5052035;28;9599;-73
2021/12/22 12:24:37;;;;;;;;;44.00;43.00;;;;;;;;5043613;28;8865;-73
2021/12/22 12:27:36;;;;;;;;;52.67;46.00;;;;;;;;5041805;28;8888;-73
2021/12/22 12:30:07;;;;;;;;;56.00;45.00;;;;;;;;5048224;28;8891;-73
2021/12/22 12:33:12;;;;;;;;;46.00;43.00;;;;;;;;5063764;28;8870;-73
2021/12/22 12:35:59;;;;;;;;;35.33;35.33;;;;;;;;5059255;28;8882;-73
2021/12/22 12:38:30;;;;;;;;;51.33;42.67;;;;;;;;5053419;28;8874;-73
2021/12/22 12:41:17;;;;;;;;;44.67;42.33;;;;;;;;5056772;28;8857;-73
2021/12/22 12:44:10;;;;;;;;;43.00;42.67;;;;;;;;5063691;28;8870;-73
2021/12/22 12:46:44;;;;;;;;;48.67;45.00;;;;;;;;5056958;28;8879;-72
2021/12/22 12:49:45;;;;;;;;;49.00;46.67;;;;;;;;5065804;28;8877;-73
2021/12/22 12:52:21;;;;;;;;;50.67;45.00;;;;;;;;5015004;28;8887;-72
2021/12/22 12:54:52;;;;;;;;;50.33;47.00;;;;;;;;5016106;28;8903;-74
2021/12/22 12:57:37;;;;;;;;;47.67;38.33;;;;;;;;5044912;28;8916;-73
2021/12/22 13:00:18;;;;;;;;;49.00;43.00;;;;;;;;5058529;28;8862;-73
2021/12/22 13:02:46;;;;;;;;;48.33;45.00;;;;;;;;5046590;28;8966;-73
2021/12/22 13:05:15;;;;;;;;;43.00;40.00;;;;;;;;5045599;28;8861;-73
2021/12/22 13:07:45;;;;;;;;;38.67;37.00;;;;;;;;5046434;28;8857;-73
2021/12/22 13:10:22;;;;;;;;;47.33;46.00;;;;;;;;5064059;28;8947;-73
2021/12/22 13:15:50;;;;;;;;;51.00;44.00;;;;;;;;5057248;28;8865;-74
2021/12/22 13:18:28;;;;;;;;;43.67;41.33;;;;;;;;5065620;28;8944;-72
2021/12/22 13:20:58;;;;;;;;;52.00;41.00;;;;;;;;5067987;28;8913;-72
2021/12/22 13:23:30;;;;;;;;;41.00;41.00;;;;;;;;5065546;28;8985;-73
2021/12/22 13:25:58;;;;;;;;;42.33;40.00;;;;;;;;5060035;28;8913;-73
2021/12/22 13:28:26;;;;;;;;;47.33;43.00;;;;;;;;5065901;28;8859;-73
2021/12/22 13:30:56;;;;;;;;;48.33;44.67;;;;;;;;5064739;28;8903;-72
2021/12/22 13:33:26;;;;;;;;;47.00;39.33;;;;;;;;5066420;28;8842;-72
2021/12/22 13:35:55;;;;;;;;;48.33;43.33;;;;;;;;5046729;28;8892;-72
2021/12/22 13:38:29;;;;;;;;;48.00;39.33;;;;;;;;5074069;28;8989;-72
2021/12/22 13:40:58;;;;;;;;;51.00;42.67;;;;;;;;5064812;28;8866;-72
2021/12/22 13:43:28;;;;;;;;;51.00;39.00;;;;;;;;5052544;28;8938;-72
2021/12/22 13:46:10;;;;;;;;;53.67;46.00;;;;;;;;5064900;28;8987;-72
2021/12/22 13:48:43;;;;;;;;;40.00;37.67;;;;;;;;5065767;28;9667;-72
2021/12/22 13:51:13;;;;;;;;;49.00;40.67;;;;;;;;5065638;28;8906;-72
2021/12/22 13:53:43;;;;;;;;;64.33;44.67;;;;;;;;5046441;28;8919;-72
2021/12/22 13:56:14;;;;;;;;;57.33;49.33;;;;;;;;5045641;28;9019;-72
2021/12/22 13:58:44;;;;;;;;;44.00;39.00;;;;;;;;5044885;28;8962;-72
2021/12/22 14:01:26;;;;;;;;;52.00;44.67;;;;;;;;5064165;28;9536;-72
2021/12/22 14:04:08;;;;;;;;;44.33;37.00;;;;;;;;5065695;28;8969;-72
2021/12/22 14:06:37;;;;;;;;;46.33;41.33;;;;;;;;5064356;28;8882;-72
2021/12/22 14:09:11;;;;;;;;;64.67;47.00;;;;;;;;5065525;28;8862;-72
2021/12/22 14:11:41;;;;;;;;;54.67;45.00;;;;;;;;5063708;28;9005;-72
2021/12/22 14:14:36;;;;;;;;;53.33;42.33;;;;;;;;5062604;28;8860;-72
2021/12/22 14:17:29;;;;;;;;;36.67;34.33;;;;;;;;5031812;28;8863;-72
2021/12/22 14:20:15;;;;;;;;;64.00;45.00;;;;;;;;5064026;28;8859;-72
2021/12/22 14:22:44;;;;;;;;;45.33;43.00;;;;;;;;5065254;28;8929;-72
2021/12/22 14:25:16;;;;;;;;;51.00;42.00;;;;;;;;5064896;28;8865;-72
2021/12/22 14:27:47;;;;;;;;;50.33;42.67;;;;;;;;5059760;28;8880;-72
2021/12/22 14:30:31;;;;;;;;;53.33;47.67;;;;;;;;5044743;28;8853;-72
2021/12/22 14:33:01;;;;;;;;;57.33;48.33;;;;;;;;5045220;28;8861;-72
2021/12/22 14:35:30;;;;;;;;;49.33;44.00;;;;;;;;5065030;28;8894;-72
2021/12/22 14:38:00;;;;;;;;;51.33;38.00;;;;;;;;5073407;28;8854;-72
2021/12/22 14:40:33;;;;;;;;;49.67;42.33;;;;;;;;5063879;28;8888;-72
2021/12/22 14:43:04;;;;;;;;;44.67;41.33;;;;;;;;5061761;28;8871;-72
2021/12/22 14:45:33;;;;;;;;;59.00;46.33;;;;;;;;5048486;28;8862;-72
2021/12/22 14:48:10;;;;;;;;;62.67;48.67;;;;;;;;5048140;28;8885;-72
2021/12/22 14:50:39;;;;;;;;;69.67;56.33;;;;;;;;5048226;28;8947;-73
2021/12/22 14:53:10;;;;;;;;;55.67;46.33;;;;;;;;5056063;28;8877;-72
2021/12/22 14:55:56;;;;;;;;;35.00;34.33;;;;;;;;5056337;28;8853;-73
2021/12/22 14:58:24;;;;;;;;;46.00;39.67;;;;;;;;5056395;28;8873;-73
2021/12/22 15:00:52;;;;;;;;;64.33;51.33;;;;;;;;5054816;28;8775;-72
2021/12/22 15:03:20;;;;;;;;;64.00;52.00;;;;;;;;5060860;28;8924;-73
2021/12/22 15:05:57;;;;;;;;;51.33;45.33;;;;;;;;5060671;28;8858;-74
2021/12/22 15:08:25;;;;;;;;;62.67;53.67;;;;;;;;5061648;28;8880;-74
2021/12/22 15:10:55;;;;;;;;;37.33;37.00;;;;;;;;5050402;28;8865;-76
2021/12/22 15:13:23;;;;;;;;;49.00;45.33;;;;;;;;5057489;28;8858;-74
2021/12/22 15:15:50;;;;;;;;;43.33;40.33;;;;;;;;5057402;28;8904;-72
2021/12/22 15:18:18;;;;;;;;;55.00;46.67;;;;;;;;5059423;28;8859;-77